sensor_id;sensor_type;location;lat;lon;timestamp;P1;durP1;ratioP1;P2;durP2;ratioP2
1701;SDS011;848;48.354;10.064;2024-03-02T00:01:45;9.02;;;6.30;;
1701;SDS011;848;48.354;10.064;2024-03-02T00:04:15;8.27;;;6.43;;
1701;SDS011;848;48.354;10.064;2024-03-02T00:06:44;8.73;;;6.03;;
1701;SDS011;848;48.354;10.064;2024-03-02T00:09:11;6.93;;;6.20;;
1701;SDS011;848;48.354;10.064;2024-03-02T00:11:38;8.48;;;5.75;;
1701;SDS011;848;48.354;10.064;2024-03-02T00:14:05;7.05;;;5.75;;
1701;SDS011;848;48.354;10.064;2024-03-02T00:16:32;10.45;;;6.35;;
1701;SDS011;848;48.354;10.064;2024-03-02T00:19:03;5.80;;;4.82;;
1701;SDS011;848;48.354;10.064;2024-03-02T00:21:33;8.13;;;5.97;;
1701;SDS011;848;48.354;10.064;2024-03-02T00:24:00;6.40;;;5.30;;
1701;SDS011;848;48.354;10.064;2024-03-02T00:26:33;5.95;;;5.32;;
1701;SDS011;848;48.354;10.064;2024-03-02T00:29:00;9.27;;;6.18;;
1701;SDS011;848;48.354;10.064;2024-03-02T00:31:26;11.80;;;6.28;;
1701;SDS011;848;48.354;10.064;2024-03-02T00:33:53;8.65;;;5.80;;
1701;SDS011;848;48.354;10.064;2024-03-02T00:36:24;7.43;;;5.28;;
1701;SDS011;848;48.354;10.064;2024-03-02T00:38:53;8.70;;;6.15;;
1701;SDS011;848;48.354;10.064;2024-03-02T00:41:22;8.45;;;6.13;;
1701;SDS011;848;48.354;10.064;2024-03-02T00:43:53;6.35;;;5.40;;
1701;SDS011;848;48.354;10.064;2024-03-02T00:46:26;8.23;;;4.93;;
1701;SDS011;848;48.354;10.064;2024-03-02T00:48:56;8.25;;;6.07;;
1701;SDS011;848;48.354;10.064;2024-03-02T00:51:26;8.80;;;5.93;;
1701;SDS011;848;48.354;10.064;2024-03-02T00:53:55;7.45;;;5.40;;
1701;SDS011;848;48.354;10.064;2024-03-02T00:56:24;6.43;;;5.47;;
1701;SDS011;848;48.354;10.064;2024-03-02T00:58:52;6.18;;;5.00;;
1701;SDS011;848;48.354;10.064;2024-03-02T01:01:19;7.13;;;5.32;;
1701;SDS011;848;48.354;10.064;2024-03-02T01:03:46;4.95;;;4.45;;
1701;SDS011;848;48.354;10.064;2024-03-02T01:06:14;6.00;;;5.40;;
1701;SDS011;848;48.354;10.064;2024-03-02T01:08:42;7.68;;;5.78;;
1701;SDS011;848;48.354;10.064;2024-03-02T01:11:09;6.43;;;5.22;;
1701;SDS011;848;48.354;10.064;2024-03-02T01:13:36;8.50;;;5.07;;
1701;SDS011;848;48.354;10.064;2024-03-02T01:16:03;9.45;;;5.20;;
1701;SDS011;848;48.354;10.064;2024-03-02T01:18:31;7.18;;;5.28;;
1701;SDS011;848;48.354;10.064;2024-03-02T01:20:57;8.98;;;5.85;;
1701;SDS011;848;48.354;10.064;2024-03-02T01:23:25;7.60;;;5.20;;
1701;SDS011;848;48.354;10.064;2024-03-02T01:25:55;6.65;;;4.93;;
1701;SDS011;848;48.354;10.064;2024-03-02T01:28:22;7.05;;;5.95;;
1701;SDS011;848;48.354;10.064;2024-03-02T01:30:49;9.57;;;5.82;;
1701;SDS011;848;48.354;10.064;2024-03-02T01:33:16;9.43;;;5.47;;
1701;SDS011;848;48.354;10.064;2024-03-02T01:35:43;6.10;;;5.05;;
1701;SDS011;848;48.354;10.064;2024-03-02T01:38:10;9.13;;;5.55;;
1701;SDS011;848;48.354;10.064;2024-03-02T01:40:37;8.52;;;5.55;;
1701;SDS011;848;48.354;10.064;2024-03-02T01:43:05;8.05;;;6.28;;
1701;SDS011;848;48.354;10.064;2024-03-02T01:45:33;6.95;;;5.20;;
1701;SDS011;848;48.354;10.064;2024-03-02T01:48:00;7.70;;;4.80;;
1701;SDS011;848;48.354;10.064;2024-03-02T01:50:27;7.38;;;6.68;;
1701;SDS011;848;48.354;10.064;2024-03-02T01:52:55;6.20;;;4.70;;
1701;SDS011;848;48.354;10.064;2024-03-02T01:55:22;7.95;;;6.43;;
1701;SDS011;848;48.354;10.064;2024-03-02T01:57:49;7.55;;;5.40;;
1701;SDS011;848;48.354;10.064;2024-03-02T02:00:18;5.68;;;4.95;;
1701;SDS011;848;48.354;10.064;2024-03-02T02:02:46;6.85;;;5.20;;
1701;SDS011;848;48.354;10.064;2024-03-02T02:05:14;8.27;;;5.90;;
1701;SDS011;848;48.354;10.064;2024-03-02T02:07:41;7.38;;;5.50;;
1701;SDS011;848;48.354;10.064;2024-03-02T02:10:08;8.52;;;6.53;;
1701;SDS011;848;48.354;10.064;2024-03-02T02:12:35;6.47;;;5.05;;
1701;SDS011;848;48.354;10.064;2024-03-02T02:15:02;8.98;;;5.30;;
1701;SDS011;848;48.354;10.064;2024-03-02T02:17:32;8.68;;;6.13;;
1701;SDS011;848;48.354;10.064;2024-03-02T02:19:59;8.27;;;5.13;;
1701;SDS011;848;48.354;10.064;2024-03-02T02:22:27;5.97;;;5.05;;
1701;SDS011;848;48.354;10.064;2024-03-02T02:24:54;7.75;;;6.00;;
1701;SDS011;848;48.354;10.064;2024-03-02T02:27:20;6.72;;;4.68;;
1701;SDS011;848;48.354;10.064;2024-03-02T02:29:47;8.93;;;6.18;;
1701;SDS011;848;48.354;10.064;2024-03-02T02:32:14;6.50;;;4.97;;
1701;SDS011;848;48.354;10.064;2024-03-02T02:34:42;6.95;;;5.55;;
1701;SDS011;848;48.354;10.064;2024-03-02T02:37:09;7.38;;;5.53;;
1701;SDS011;848;48.354;10.064;2024-03-02T02:39:37;7.25;;;5.72;;
1701;SDS011;848;48.354;10.064;2024-03-02T02:42:04;6.50;;;4.90;;
1701;SDS011;848;48.354;10.064;2024-03-02T02:44:32;6.40;;;5.80;;
1701;SDS011;848;48.354;10.064;2024-03-02T02:46:59;6.80;;;5.22;;
1701;SDS011;848;48.354;10.064;2024-03-02T02:49:25;8.20;;;4.88;;
1701;SDS011;848;48.354;10.064;2024-03-02T02:51:52;7.13;;;5.50;;
1701;SDS011;848;48.354;10.064;2024-03-02T02:54:19;5.30;;;4.80;;
1701;SDS011;848;48.354;10.064;2024-03-02T02:56:47;7.20;;;5.13;;
1701;SDS011;848;48.354;10.064;2024-03-02T02:59:15;6.00;;;4.30;;
1701;SDS011;848;48.354;10.064;2024-03-02T03:01:41;5.72;;;4.60;;
1701;SDS011;848;48.354;10.064;2024-03-02T03:04:09;8.15;;;5.75;;
1701;SDS011;848;48.354;10.064;2024-03-02T03:06:36;7.57;;;5.35;;
1701;SDS011;848;48.354;10.064;2024-03-02T03:09:03;5.90;;;5.40;;
1701;SDS011;848;48.354;10.064;2024-03-02T03:11:30;7.57;;;5.95;;
1701;SDS011;848;48.354;10.064;2024-03-02T03:13:58;9.40;;;5.82;;
1701;SDS011;848;48.354;10.064;2024-03-02T03:16:26;4.60;;;4.10;;
1701;SDS011;848;48.354;10.064;2024-03-02T03:18:53;9.98;;;5.95;;
1701;SDS011;848;48.354;10.064;2024-03-02T03:21:20;7.18;;;5.30;;
1701;SDS011;848;48.354;10.064;2024-03-02T03:23:47;7.72;;;5.72;;
1701;SDS011;848;48.354;10.064;2024-03-02T03:26:13;5.97;;;5.38;;
1701;SDS011;848;48.354;10.064;2024-03-02T03:28:40;6.05;;;5.45;;
1701;SDS011;848;48.354;10.064;2024-03-02T03:31:08;6.40;;;4.97;;
1701;SDS011;848;48.354;10.064;2024-03-02T03:33:35;5.70;;;5.10;;
1701;SDS011;848;48.354;10.064;2024-03-02T03:36:02;8.40;;;5.55;;
1701;SDS011;848;48.354;10.064;2024-03-02T03:38:30;9.82;;;6.22;;
1701;SDS011;848;48.354;10.064;2024-03-02T03:40:56;7.97;;;6.00;;
1701;SDS011;848;48.354;10.064;2024-03-02T03:43:23;7.40;;;5.32;;
1701;SDS011;848;48.354;10.064;2024-03-02T03:45:50;6.85;;;4.90;;
1701;SDS011;848;48.354;10.064;2024-03-02T03:48:18;7.32;;;5.15;;
1701;SDS011;848;48.354;10.064;2024-03-02T03:50:46;7.03;;;5.18;;
1701;SDS011;848;48.354;10.064;2024-03-02T03:53:12;6.93;;;5.82;;
1701;SDS011;848;48.354;10.064;2024-03-02T03:55:40;7.18;;;5.60;;
1701;SDS011;848;48.354;10.064;2024-03-02T03:58:07;8.15;;;5.80;;
1701;SDS011;848;48.354;10.064;2024-03-02T04:00:34;5.57;;;4.70;;
1701;SDS011;848;48.354;10.064;2024-03-02T04:03:01;6.28;;;4.82;;
1701;SDS011;848;48.354;10.064;2024-03-02T04:05:29;7.20;;;4.85;;
1701;SDS011;848;48.354;10.064;2024-03-02T04:07:56;5.25;;;4.63;;
1701;SDS011;848;48.354;10.064;2024-03-02T04:10:23;10.13;;;5.80;;
1701;SDS011;848;48.354;10.064;2024-03-02T04:12:50;6.60;;;4.93;;
1701;SDS011;848;48.354;10.064;2024-03-02T04:15:17;6.32;;;5.22;;
1701;SDS011;848;48.354;10.064;2024-03-02T04:17:44;5.65;;;4.65;;
1701;SDS011;848;48.354;10.064;2024-03-02T04:20:11;7.75;;;5.15;;
1701;SDS011;848;48.354;10.064;2024-03-02T04:22:40;6.15;;;5.55;;
1701;SDS011;848;48.354;10.064;2024-03-02T04:25:07;6.20;;;5.47;;
1701;SDS011;848;48.354;10.064;2024-03-02T04:27:34;5.72;;;4.82;;
1701;SDS011;848;48.354;10.064;2024-03-02T04:30:01;9.40;;;5.93;;
1701;SDS011;848;48.354;10.064;2024-03-02T04:32:30;8.68;;;5.57;;
1701;SDS011;848;48.354;10.064;2024-03-02T04:34:57;7.90;;;5.45;;
1701;SDS011;848;48.354;10.064;2024-03-02T04:37:24;11.88;;;7.65;;
1701;SDS011;848;48.354;10.064;2024-03-02T04:39:52;9.18;;;5.82;;
1701;SDS011;848;48.354;10.064;2024-03-02T04:42:19;7.22;;;5.40;;
1701;SDS011;848;48.354;10.064;2024-03-02T04:44:45;6.60;;;4.68;;
1701;SDS011;848;48.354;10.064;2024-03-02T04:47:13;6.47;;;5.07;;
1701;SDS011;848;48.354;10.064;2024-03-02T04:49:40;7.95;;;5.38;;
1701;SDS011;848;48.354;10.064;2024-03-02T04:52:07;6.20;;;4.75;;
1701;SDS011;848;48.354;10.064;2024-03-02T04:54:34;7.43;;;5.13;;
1701;SDS011;848;48.354;10.064;2024-03-02T04:57:23;12.23;;;6.38;;
1701;SDS011;848;48.354;10.064;2024-03-02T04:59:49;6.80;;;5.30;;
1701;SDS011;848;48.354;10.064;2024-03-02T05:02:16;5.85;;;5.03;;
1701;SDS011;848;48.354;10.064;2024-03-02T05:04:43;7.05;;;5.40;;
1701;SDS011;848;48.354;10.064;2024-03-02T05:07:10;6.13;;;5.30;;
1701;SDS011;848;48.354;10.064;2024-03-02T05:09:37;7.00;;;5.15;;
1701;SDS011;848;48.354;10.064;2024-03-02T05:12:04;9.18;;;5.38;;
1701;SDS011;848;48.354;10.064;2024-03-02T05:15:07;5.63;;;4.82;;
1701;SDS011;848;48.354;10.064;2024-03-02T05:17:35;9.48;;;5.75;;
1701;SDS011;848;48.354;10.064;2024-03-02T05:20:04;6.50;;;4.80;;
1701;SDS011;848;48.354;10.064;2024-03-02T05:22:33;11.68;;;5.65;;
1701;SDS011;848;48.354;10.064;2024-03-02T05:25:00;6.65;;;5.35;;
1701;SDS011;848;48.354;10.064;2024-03-02T05:27:27;8.98;;;5.57;;
1701;SDS011;848;48.354;10.064;2024-03-02T05:29:54;7.53;;;5.25;;
1701;SDS011;848;48.354;10.064;2024-03-02T05:32:22;8.80;;;6.43;;
1701;SDS011;848;48.354;10.064;2024-03-02T05:34:49;11.52;;;6.82;;
1701;SDS011;848;48.354;10.064;2024-03-02T05:37:16;9.18;;;6.03;;
1701;SDS011;848;48.354;10.064;2024-03-02T05:39:43;8.77;;;5.72;;
1701;SDS011;848;48.354;10.064;2024-03-02T05:42:10;7.40;;;5.30;;
1701;SDS011;848;48.354;10.064;2024-03-02T05:44:37;7.78;;;4.93;;
1701;SDS011;848;48.354;10.064;2024-03-02T05:47:04;8.65;;;6.57;;
1701;SDS011;848;48.354;10.064;2024-03-02T05:49:35;8.85;;;6.30;;
1701;SDS011;848;48.354;10.064;2024-03-02T05:52:02;7.32;;;5.22;;
1701;SDS011;848;48.354;10.064;2024-03-02T05:54:28;8.25;;;5.80;;
1701;SDS011;848;48.354;10.064;2024-03-02T05:56:55;6.25;;;5.57;;
1701;SDS011;848;48.354;10.064;2024-03-02T05:59:40;7.95;;;5.40;;
1701;SDS011;848;48.354;10.064;2024-03-02T06:02:07;7.57;;;5.53;;
1701;SDS011;848;48.354;10.064;2024-03-02T06:04:36;9.50;;;6.75;;
1701;SDS011;848;48.354;10.064;2024-03-02T06:07:02;9.90;;;6.22;;
1701;SDS011;848;48.354;10.064;2024-03-02T06:09:29;9.45;;;6.78;;
1701;SDS011;848;48.354;10.064;2024-03-02T06:11:56;11.95;;;7.20;;
1701;SDS011;848;48.354;10.064;2024-03-02T06:14:23;11.07;;;6.10;;
1701;SDS011;848;48.354;10.064;2024-03-02T06:16:50;6.80;;;5.60;;
1701;SDS011;848;48.354;10.064;2024-03-02T06:19:17;14.05;;;6.32;;
1701;SDS011;848;48.354;10.064;2024-03-02T06:21:45;7.40;;;5.90;;
1701;SDS011;848;48.354;10.064;2024-03-02T06:24:12;8.70;;;5.90;;
1701;SDS011;848;48.354;10.064;2024-03-02T06:26:39;9.68;;;6.18;;
1701;SDS011;848;48.354;10.064;2024-03-02T06:29:05;6.28;;;4.88;;
1701;SDS011;848;48.354;10.064;2024-03-02T06:31:32;8.68;;;5.65;;
1701;SDS011;848;48.354;10.064;2024-03-02T06:34:00;8.65;;;6.25;;
1701;SDS011;848;48.354;10.064;2024-03-02T06:36:28;9.27;;;6.28;;
1701;SDS011;848;48.354;10.064;2024-03-02T06:38:56;8.20;;;6.22;;
1701;SDS011;848;48.354;10.064;2024-03-02T06:41:23;6.07;;;5.47;;
1701;SDS011;848;48.354;10.064;2024-03-02T06:43:51;5.75;;;5.25;;
1701;SDS011;848;48.354;10.064;2024-03-02T06:46:24;8.27;;;5.78;;
1701;SDS011;848;48.354;10.064;2024-03-02T06:48:51;7.07;;;5.60;;
1701;SDS011;848;48.354;10.064;2024-03-02T06:51:18;6.15;;;5.55;;
1701;SDS011;848;48.354;10.064;2024-03-02T06:53:44;6.53;;;5.25;;
1701;SDS011;848;48.354;10.064;2024-03-02T06:56:13;7.30;;;6.35;;
1701;SDS011;848;48.354;10.064;2024-03-02T06:58:40;9.43;;;6.03;;
1701;SDS011;848;48.354;10.064;2024-03-02T07:01:08;8.07;;;5.85;;
1701;SDS011;848;48.354;10.064;2024-03-02T07:03:35;10.80;;;6.88;;
1701;SDS011;848;48.354;10.064;2024-03-02T07:06:01;8.75;;;5.72;;
1701;SDS011;848;48.354;10.064;2024-03-02T07:08:29;8.75;;;6.72;;
1701;SDS011;848;48.354;10.064;2024-03-02T07:10:56;7.63;;;5.88;;
1701;SDS011;848;48.354;10.064;2024-03-02T07:13:24;7.72;;;5.60;;
1701;SDS011;848;48.354;10.064;2024-03-02T07:15:51;7.40;;;5.20;;
1701;SDS011;848;48.354;10.064;2024-03-02T07:18:45;6.38;;;5.65;;
1701;SDS011;848;48.354;10.064;2024-03-02T07:21:16;8.05;;;5.72;;
1701;SDS011;848;48.354;10.064;2024-03-02T07:23:43;9.10;;;5.90;;
1701;SDS011;848;48.354;10.064;2024-03-02T07:26:13;10.73;;;6.35;;
1701;SDS011;848;48.354;10.064;2024-03-02T07:28:57;5.85;;;5.22;;
1701;SDS011;848;48.354;10.064;2024-03-02T07:31:24;7.78;;;5.88;;
1701;SDS011;848;48.354;10.064;2024-03-02T07:33:54;6.53;;;5.35;;
1701;SDS011;848;48.354;10.064;2024-03-02T07:36:21;6.57;;;5.75;;
1701;SDS011;848;48.354;10.064;2024-03-02T07:38:48;9.30;;;6.72;;
1701;SDS011;848;48.354;10.064;2024-03-02T07:41:19;7.07;;;6.38;;
1701;SDS011;848;48.354;10.064;2024-03-02T07:43:50;8.40;;;6.18;;
1701;SDS011;848;48.354;10.064;2024-03-02T07:46:18;7.15;;;5.45;;
1701;SDS011;848;48.354;10.064;2024-03-02T07:48:45;8.20;;;6.25;;
1701;SDS011;848;48.354;10.064;2024-03-02T07:51:13;8.82;;;6.32;;
1701;SDS011;848;48.354;10.064;2024-03-02T07:53:40;9.60;;;7.70;;
1701;SDS011;848;48.354;10.064;2024-03-02T07:56:06;6.90;;;5.88;;
1701;SDS011;848;48.354;10.064;2024-03-02T07:58:36;7.00;;;5.13;;
1701;SDS011;848;48.354;10.064;2024-03-02T08:01:03;8.23;;;6.30;;
1701;SDS011;848;48.354;10.064;2024-03-02T08:03:32;5.80;;;5.18;;
1701;SDS011;848;48.354;10.064;2024-03-02T08:05:59;8.13;;;6.30;;
1701;SDS011;848;48.354;10.064;2024-03-02T08:08:26;8.68;;;5.80;;
1701;SDS011;848;48.354;10.064;2024-03-02T08:10:53;7.68;;;5.97;;
1701;SDS011;848;48.354;10.064;2024-03-02T08:13:25;8.70;;;5.50;;
1701;SDS011;848;48.354;10.064;2024-03-02T08:15:56;8.27;;;6.13;;
1701;SDS011;848;48.354;10.064;2024-03-02T08:18:22;7.07;;;5.38;;
1701;SDS011;848;48.354;10.064;2024-03-02T08:20:51;7.82;;;6.22;;
1701;SDS011;848;48.354;10.064;2024-03-02T08:23:18;7.68;;;5.95;;
1701;SDS011;848;48.354;10.064;2024-03-02T08:25:45;7.47;;;6.20;;
1701;SDS011;848;48.354;10.064;2024-03-02T08:28:12;11.90;;;5.32;;
1701;SDS011;848;48.354;10.064;2024-03-02T08:30:39;7.82;;;6.45;;
1701;SDS011;848;48.354;10.064;2024-03-02T08:33:06;7.93;;;6.45;;
1701;SDS011;848;48.354;10.064;2024-03-02T08:35:33;8.88;;;7.50;;
1701;SDS011;848;48.354;10.064;2024-03-02T08:38:02;8.80;;;7.20;;
1701;SDS011;848;48.354;10.064;2024-03-02T08:40:30;12.68;;;8.02;;
1701;SDS011;848;48.354;10.064;2024-03-02T08:42:57;8.73;;;6.60;;
1701;SDS011;848;48.354;10.064;2024-03-02T08:45:24;10.63;;;7.00;;
1701;SDS011;848;48.354;10.064;2024-03-02T08:47:51;9.15;;;6.93;;
1701;SDS011;848;48.354;10.064;2024-03-02T08:50:17;10.75;;;6.75;;
1701;SDS011;848;48.354;10.064;2024-03-02T08:52:44;7.75;;;6.03;;
1701;SDS011;848;48.354;10.064;2024-03-02T08:55:13;8.00;;;6.55;;
1701;SDS011;848;48.354;10.064;2024-03-02T08:57:40;9.90;;;6.88;;
1701;SDS011;848;48.354;10.064;2024-03-02T09:00:08;10.70;;;8.02;;
1701;SDS011;848;48.354;10.064;2024-03-02T09:02:35;10.45;;;6.78;;
1701;SDS011;848;48.354;10.064;2024-03-02T09:05:03;10.00;;;7.03;;
1701;SDS011;848;48.354;10.064;2024-03-02T09:07:34;9.52;;;7.45;;
1701;SDS011;848;48.354;10.064;2024-03-02T09:10:01;11.95;;;6.63;;
1701;SDS011;848;48.354;10.064;2024-03-02T09:12:29;9.55;;;6.90;;
1701;SDS011;848;48.354;10.064;2024-03-02T09:14:56;11.70;;;7.22;;
1701;SDS011;848;48.354;10.064;2024-03-02T09:17:23;9.25;;;5.70;;
1701;SDS011;848;48.354;10.064;2024-03-02T09:19:50;8.93;;;6.53;;
1701;SDS011;848;48.354;10.064;2024-03-02T09:22:17;8.25;;;6.72;;
1701;SDS011;848;48.354;10.064;2024-03-02T09:24:47;8.75;;;7.38;;
1701;SDS011;848;48.354;10.064;2024-03-02T09:27:14;12.60;;;7.65;;
1701;SDS011;848;48.354;10.064;2024-03-02T09:29:42;15.25;;;10.57;;
1701;SDS011;848;48.354;10.064;2024-03-02T09:32:11;11.80;;;7.65;;
1701;SDS011;848;48.354;10.064;2024-03-02T09:34:39;13.00;;;7.45;;
1701;SDS011;848;48.354;10.064;2024-03-02T09:37:06;7.68;;;6.13;;
1701;SDS011;848;48.354;10.064;2024-03-02T09:39:32;16.52;;;8.20;;
1701;SDS011;848;48.354;10.064;2024-03-02T09:41:59;11.73;;;7.57;;
1701;SDS011;848;48.354;10.064;2024-03-02T09:44:27;9.75;;;7.15;;
1701;SDS011;848;48.354;10.064;2024-03-02T09:46:55;14.35;;;9.07;;
1701;SDS011;848;48.354;10.064;2024-03-02T09:49:22;13.00;;;9.25;;
1701;SDS011;848;48.354;10.064;2024-03-02T09:51:49;12.45;;;8.82;;
1701;SDS011;848;48.354;10.064;2024-03-02T09:54:16;11.45;;;7.60;;
1701;SDS011;848;48.354;10.064;2024-03-02T09:56:43;12.63;;;8.25;;
1701;SDS011;848;48.354;10.064;2024-03-02T09:59:10;10.27;;;7.82;;
1701;SDS011;848;48.354;10.064;2024-03-02T10:01:38;11.95;;;8.35;;
1701;SDS011;848;48.354;10.064;2024-03-02T10:04:06;16.20;;;10.35;;
1701;SDS011;848;48.354;10.064;2024-03-02T10:06:34;14.48;;;9.35;;
1701;SDS011;848;48.354;10.064;2024-03-02T10:09:00;13.70;;;9.98;;
1701;SDS011;848;48.354;10.064;2024-03-02T10:11:28;14.20;;;8.65;;
1701;SDS011;848;48.354;10.064;2024-03-02T10:14:06;14.93;;;9.57;;
1701;SDS011;848;48.354;10.064;2024-03-02T10:16:34;12.48;;;8.93;;
1701;SDS011;848;48.354;10.064;2024-03-02T10:21:52;12.95;;;8.80;;
1701;SDS011;848;48.354;10.064;2024-03-02T10:24:20;12.35;;;8.55;;
1701;SDS011;848;48.354;10.064;2024-03-02T10:26:47;13.73;;;9.48;;
1701;SDS011;848;48.354;10.064;2024-03-02T10:29:15;11.52;;;8.95;;
1701;SDS011;848;48.354;10.064;2024-03-02T10:31:43;12.68;;;8.73;;
1701;SDS011;848;48.354;10.064;2024-03-02T10:34:11;11.40;;;8.40;;
1701;SDS011;848;48.354;10.064;2024-03-02T10:36:42;14.82;;;9.20;;
1701;SDS011;848;48.354;10.064;2024-03-02T10:39:11;14.27;;;9.10;;
1701;SDS011;848;48.354;10.064;2024-03-02T10:41:39;14.02;;;9.32;;
1701;SDS011;848;48.354;10.064;2024-03-02T10:44:07;12.30;;;8.10;;
1701;SDS011;848;48.354;10.064;2024-03-02T10:46:35;10.85;;;8.30;;
1701;SDS011;848;48.354;10.064;2024-03-02T10:49:04;9.60;;;6.85;;
1701;SDS011;848;48.354;10.064;2024-03-02T10:51:32;12.07;;;8.13;;
1701;SDS011;848;48.354;10.064;2024-03-02T10:54:02;10.70;;;7.95;;
1701;SDS011;848;48.354;10.064;2024-03-02T10:56:30;11.50;;;7.82;;
1701;SDS011;848;48.354;10.064;2024-03-02T10:59:02;10.90;;;8.20;;
1701;SDS011;848;48.354;10.064;2024-03-02T11:01:32;11.45;;;7.90;;
1701;SDS011;848;48.354;10.064;2024-03-02T11:04:01;9.63;;;7.18;;
1701;SDS011;848;48.354;10.064;2024-03-02T11:06:32;11.55;;;9.23;;
1701;SDS011;848;48.354;10.064;2024-03-02T11:09:05;12.93;;;8.35;;
1701;SDS011;848;48.354;10.064;2024-03-02T11:11:36;12.10;;;8.93;;
1701;SDS011;848;48.354;10.064;2024-03-02T11:14:07;10.00;;;7.10;;
1701;SDS011;848;48.354;10.064;2024-03-02T11:16:39;10.32;;;7.50;;
1701;SDS011;848;48.354;10.064;2024-03-02T11:19:07;10.27;;;8.23;;
1701;SDS011;848;48.354;10.064;2024-03-02T11:21:36;13.82;;;8.35;;
1701;SDS011;848;48.354;10.064;2024-03-02T11:27:01;15.07;;;9.70;;
1701;SDS011;848;48.354;10.064;2024-03-02T11:29:45;12.25;;;9.23;;
1701;SDS011;848;48.354;10.064;2024-03-02T11:32:14;15.02;;;9.38;;
1701;SDS011;848;48.354;10.064;2024-03-02T11:34:43;14.85;;;9.25;;
1701;SDS011;848;48.354;10.064;2024-03-02T11:37:12;13.07;;;8.98;;
1701;SDS011;848;48.354;10.064;2024-03-02T11:39:42;12.63;;;7.88;;
1701;SDS011;848;48.354;10.064;2024-03-02T11:42:10;11.73;;;9.00;;
1701;SDS011;848;48.354;10.064;2024-03-02T11:44:39;10.57;;;8.10;;
1701;SDS011;848;48.354;10.064;2024-03-02T11:47:10;12.43;;;8.98;;
1701;SDS011;848;48.354;10.064;2024-03-02T11:49:39;11.32;;;6.88;;
1701;SDS011;848;48.354;10.064;2024-03-02T11:52:07;12.18;;;7.45;;
1701;SDS011;848;48.354;10.064;2024-03-02T11:54:36;10.68;;;7.78;;
1701;SDS011;848;48.354;10.064;2024-03-02T11:57:07;8.93;;;7.57;;
1701;SDS011;848;48.354;10.064;2024-03-02T11:59:34;10.38;;;7.45;;
1701;SDS011;848;48.354;10.064;2024-03-02T12:02:01;9.18;;;7.05;;
1701;SDS011;848;48.354;10.064;2024-03-02T12:04:29;12.15;;;7.80;;
1701;SDS011;848;48.354;10.064;2024-03-02T12:06:57;8.70;;;6.82;;
1701;SDS011;848;48.354;10.064;2024-03-02T12:09:26;8.75;;;6.45;;
1701;SDS011;848;48.354;10.064;2024-03-02T12:12:03;8.27;;;5.88;;
1701;SDS011;848;48.354;10.064;2024-03-02T12:14:32;9.13;;;6.63;;
1701;SDS011;848;48.354;10.064;2024-03-02T12:17:01;9.80;;;7.18;;
1701;SDS011;848;48.354;10.064;2024-03-02T12:19:29;9.20;;;7.50;;
1701;SDS011;848;48.354;10.064;2024-03-02T12:21:56;7.75;;;6.82;;
1701;SDS011;848;48.354;10.064;2024-03-02T12:24:24;12.52;;;7.30;;
1701;SDS011;848;48.354;10.064;2024-03-02T12:26:53;7.25;;;6.13;;
1701;SDS011;848;48.354;10.064;2024-03-02T12:29:20;9.00;;;6.38;;
1701;SDS011;848;48.354;10.064;2024-03-02T12:31:49;6.00;;;5.47;;
1701;SDS011;848;48.354;10.064;2024-03-02T12:34:17;9.13;;;6.63;;
1701;SDS011;848;48.354;10.064;2024-03-02T12:36:45;9.05;;;6.25;;
1701;SDS011;848;48.354;10.064;2024-03-02T12:39:14;6.72;;;5.75;;
1701;SDS011;848;48.354;10.064;2024-03-02T12:41:41;8.35;;;6.28;;
1701;SDS011;848;48.354;10.064;2024-03-02T12:44:08;7.20;;;5.90;;
1701;SDS011;848;48.354;10.064;2024-03-02T12:46:35;9.95;;;6.82;;
1701;SDS011;848;48.354;10.064;2024-03-02T12:49:08;7.63;;;5.55;;
1701;SDS011;848;48.354;10.064;2024-03-02T12:51:37;8.30;;;5.80;;
1701;SDS011;848;48.354;10.064;2024-03-02T12:54:05;9.73;;;7.32;;
1701;SDS011;848;48.354;10.064;2024-03-02T12:56:32;9.50;;;7.00;;
1701;SDS011;848;48.354;10.064;2024-03-02T12:58:59;10.82;;;7.45;;
1701;SDS011;848;48.354;10.064;2024-03-02T13:01:27;13.40;;;8.35;;
1701;SDS011;848;48.354;10.064;2024-03-02T13:03:54;10.30;;;6.50;;
1701;SDS011;848;48.354;10.064;2024-03-02T13:06:24;9.85;;;7.03;;
1701;SDS011;848;48.354;10.064;2024-03-02T13:08:53;9.48;;;6.80;;
1701;SDS011;848;48.354;10.064;2024-03-02T13:11:20;11.23;;;7.68;;
1701;SDS011;848;48.354;10.064;2024-03-02T13:13:48;10.27;;;7.65;;
1701;SDS011;848;48.354;10.064;2024-03-02T13:16:15;12.60;;;7.88;;
1701;SDS011;848;48.354;10.064;2024-03-02T13:18:44;12.65;;;8.82;;
1701;SDS011;848;48.354;10.064;2024-03-02T13:21:11;8.35;;;6.25;;
1701;SDS011;848;48.354;10.064;2024-03-02T13:23:39;9.23;;;6.95;;
1701;SDS011;848;48.354;10.064;2024-03-02T13:26:06;14.75;;;7.38;;
1701;SDS011;848;48.354;10.064;2024-03-02T13:28:35;11.00;;;7.13;;
1701;SDS011;848;48.354;10.064;2024-03-02T13:31:03;9.30;;;5.90;;
1701;SDS011;848;48.354;10.064;2024-03-02T13:33:30;9.18;;;6.07;;
1701;SDS011;848;48.354;10.064;2024-03-02T13:35:58;9.60;;;7.03;;
1701;SDS011;848;48.354;10.064;2024-03-02T13:38:25;7.72;;;5.97;;
1701;SDS011;848;48.354;10.064;2024-03-02T13:40:53;8.65;;;5.80;;
1701;SDS011;848;48.354;10.064;2024-03-02T13:43:20;8.88;;;7.03;;
1701;SDS011;848;48.354;10.064;2024-03-02T13:45:48;6.95;;;5.75;;
1701;SDS011;848;48.354;10.064;2024-03-02T13:48:17;6.75;;;5.68;;
1701;SDS011;848;48.354;10.064;2024-03-02T13:50:44;8.05;;;6.30;;
1701;SDS011;848;48.354;10.064;2024-03-02T13:53:11;8.65;;;6.18;;
1701;SDS011;848;48.354;10.064;2024-03-02T13:55:38;6.47;;;5.63;;
1701;SDS011;848;48.354;10.064;2024-03-02T13:58:08;8.07;;;6.57;;
1701;SDS011;848;48.354;10.064;2024-03-02T14:00:35;7.88;;;6.45;;
1701;SDS011;848;48.354;10.064;2024-03-02T14:03:02;7.43;;;5.75;;
1701;SDS011;848;48.354;10.064;2024-03-02T14:05:30;7.80;;;6.28;;
1701;SDS011;848;48.354;10.064;2024-03-02T14:07:57;8.32;;;6.30;;
1701;SDS011;848;48.354;10.064;2024-03-02T14:10:25;13.05;;;6.32;;
1701;SDS011;848;48.354;10.064;2024-03-02T14:12:52;8.77;;;6.53;;
1701;SDS011;848;48.354;10.064;2024-03-02T14:15:21;8.93;;;5.70;;
1701;SDS011;848;48.354;10.064;2024-03-02T14:17:48;8.05;;;6.40;;
1701;SDS011;848;48.354;10.064;2024-03-02T14:20:15;5.82;;;4.15;;
1701;SDS011;848;48.354;10.064;2024-03-02T14:22:46;6.75;;;5.03;;
1701;SDS011;848;48.354;10.064;2024-03-02T14:25:14;6.30;;;4.15;;
1701;SDS011;848;48.354;10.064;2024-03-02T14:27:41;5.47;;;4.22;;
1701;SDS011;848;48.354;10.064;2024-03-02T14:30:08;6.32;;;4.40;;
1701;SDS011;848;48.354;10.064;2024-03-02T14:32:37;3.60;;;2.85;;
1701;SDS011;848;48.354;10.064;2024-03-02T14:35:10;5.05;;;2.70;;
1701;SDS011;848;48.354;10.064;2024-03-02T14:37:37;3.67;;;2.60;;
1701;SDS011;848;48.354;10.064;2024-03-02T14:40:04;2.88;;;1.77;;
1701;SDS011;848;48.354;10.064;2024-03-02T14:42:34;3.55;;;2.08;;
1701;SDS011;848;48.354;10.064;2024-03-02T14:45:01;2.42;;;1.83;;
1701;SDS011;848;48.354;10.064;2024-03-02T14:47:30;3.92;;;2.40;;
1701;SDS011;848;48.354;10.064;2024-03-02T14:49:59;2.53;;;1.70;;
1701;SDS011;848;48.354;10.064;2024-03-02T14:52:28;2.45;;;1.65;;
1701;SDS011;848;48.354;10.064;2024-03-02T14:54:55;2.30;;;1.60;;
1701;SDS011;848;48.354;10.064;2024-03-02T14:57:22;2.72;;;2.13;;
1701;SDS011;848;48.354;10.064;2024-03-02T14:59:49;3.13;;;1.80;;
1701;SDS011;848;48.354;10.064;2024-03-02T15:02:16;2.10;;;1.63;;
1701;SDS011;848;48.354;10.064;2024-03-02T15:04:43;3.47;;;2.13;;
1701;SDS011;848;48.354;10.064;2024-03-02T15:07:12;7.32;;;2.50;;
1701;SDS011;848;48.354;10.064;2024-03-02T15:09:38;2.72;;;2.20;;
1701;SDS011;848;48.354;10.064;2024-03-02T15:12:06;4.22;;;1.95;;
1701;SDS011;848;48.354;10.064;2024-03-02T15:14:35;2.53;;;2.22;;
1701;SDS011;848;48.354;10.064;2024-03-02T15:17:03;4.32;;;3.13;;
1701;SDS011;848;48.354;10.064;2024-03-02T15:19:30;6.28;;;3.55;;
1701;SDS011;848;48.354;10.064;2024-03-02T15:21:57;4.80;;;3.30;;
1701;SDS011;848;48.354;10.064;2024-03-02T15:24:25;4.50;;;2.97;;